ADDS METAR Data INFO
IDs: Format: Raw Decoded Include TAF

Data at: 1210 UTC 21 Jun 2018

KCGS 211157Z AUTO 00000KT 10SM OVC040 22/21 A2977 RMK AO1 T02240206
KCGS 211137Z AUTO 00000KT 10SM OVC038 22/21 A2976 RMK AO1 T02180208
KCGS 211117Z AUTO 00000KT 10SM OVC038 22/21 A2976 RMK AO1 T02150208
KCGS 211057Z AUTO 00000KT 10SM OVC038 21/21 A2976 RMK AO1 T02110207
KCGS 211037Z AUTO 00000KT 7SM BKN038 BKN049 OVC060 21/21 A2975 RMK AO1 T02100205
KCGS 211017Z AUTO 00000KT 10SM SCT040 BKN047 OVC060 21/20 A2975 RMK AO1 T02060202
KCGS 210957Z AUTO 00000KT 7SM BKN040 BKN046 OVC060 21/20 A2975 RMK AO1 T02050201
KCGS 210937Z AUTO 00000KT 10SM SCT041 BKN048 BKN050 21/20 A2974 RMK AO1 T02050201
KCGS 210917Z AUTO 00000KT 10SM BKN050 21/20 A2973 RMK AO1 T02070203
KCGS 210857Z AUTO 00000KT 7SM BKN050 20/20 A2973 RMK AO1 T02040200
KCGS 210837Z AUTO 00000KT 5SM SCT050 20/20 A2973 RMK AO1 T02040201
KCGS 210817Z AUTO 00000KT 7SM CLR 21/20 A2973 RMK AO1 T02050201
KCGS 210757Z AUTO 00000KT 7SM CLR 21/20 A2973 RMK AO1 T02060202
KCGS 210737Z AUTO 00000KT 10SM CLR 21/20 A2973 RMK AO1 T02080202
KCGS 210717Z AUTO 00000KT 10SM CLR 21/20 A2973 RMK AO1 T02100202
KCGS 210657Z AUTO 00000KT 10SM SCT110 21/20 A2974 RMK AO1 T02140204
KCGS 210637Z AUTO 00000KT 10SM SCT110 21/20 A2975 RMK AO1 T02130204
KCGS 210617Z AUTO 00000KT 10SM SCT048 SCT055 SCT100 22/20 A2976 RMK AO1 T02150203
KCGS 210557Z AUTO 00000KT 10SM BKN048 BKN055 BKN110 22/20 A2977 RMK AO1 T02150203
KCGS 210537Z AUTO 00000KT 10SM CLR 22/21 A2978 RMK AO1 T02150205
KCGS 210517Z AUTO 00000KT 10SM CLR 22/21 A2978 RMK AO1 T02150205
KCGS 210457Z AUTO 00000KT 10SM CLR 22/21 A2978 RMK AO1 T02150205
KCGS 210437Z AUTO 00000KT 10SM CLR 22/21 A2978 RMK AO1 T02150206
KCGS 210417Z AUTO 00000KT 10SM CLR 21/21 A2978 RMK AO1 T02110206
KCGS 210357Z AUTO 00000KT 10SM CLR 21/21 A2978 RMK AO1 T02130207
KCGS 210337Z AUTO 00000KT 10SM CLR 22/21 A2978 RMK AO1 T02150205
KCGS 210317Z AUTO 00000KT 10SM CLR 21/21 A2979 RMK AO1 T02130205
KCGS 210257Z AUTO 00000KT 10SM CLR 21/21 A2978 RMK AO1 T02120207
KCGS 210237Z AUTO 00000KT 10SM SCT014 21/21 A2979 RMK AO1 T02140207
KCGS 210217Z AUTO 00000KT 10SM BKN014 22/21 A2980 RMK AO1 T02160205
KCGS 210157Z AUTO 00000KT 10SM SCT014 SCT047 BKN060 22/20 A2980 RMK AO1 T02160203
KCGS 210137Z AUTO 23003KT 7SM SCT039 BKN055 OVC070 22/20 A2979 RMK AO1 T02150203
KCGS 210117Z AUTO 00000KT 7SM SCT048 BKN065 OVC070 22/21 A2978 RMK AO1 T02150205
KCGS 210057Z AUTO 00000KT 7SM SCT012 BKN055 OVC085 22/21 A2978 RMK AO1 T02150205
KCGS 210037Z AUTO 00000KT 1 3/4SM BKN011 OVC029 22/20 A2979 RMK AO1 VIS 3/4V5 T02150204
KCGS 210017Z AUTO 28007G23KT 240V310 4SM SCT009 SCT025 OVC032 23/21 A2982 RMK AO1 T02340205
KCGS 202357Z AUTO 00000KT 10SM OVC032 24/23 A2980 RMK AO1 T02440226
KCGS 202337Z AUTO 00000KT 10SM OVC032 25/22 A2979 RMK AO1 T02480218
KCGS 202317Z AUTO 00000KT 10SM BKN034 25/22 A2978 RMK AO1 T02500217
KCGS 202257Z AUTO 00000KT 10SM SCT034 25/22 A2977 RMK AO1 T02490218
KCGS 202237Z AUTO 00000KT 10SM CLR 25/22 A2977 RMK AO1 T02470221
KCGS 202217Z AUTO 00000KT 10SM CLR 24/22 A2976 RMK AO1 T02430218
KCGS 202157Z AUTO 00000KT 10SM SCT026 SCT036 BKN046 24/22 A2977 RMK AO1 T02410218
KCGS 202137Z AUTO 00000KT 10SM SCT034 SCT041 SCT047 24/23 A2978 RMK AO1 T02400226
KCGS 202117Z AUTO 00000KT 10SM SCT120 24/22 A2978 RMK AO1 T02410215
KCGS 202057Z AUTO 00000KT 10SM SCT033 SCT055 BKN120 25/21 A2979 RMK AO1 T02480205
KCGS 202037Z AUTO 00000KT 10SM BKN120 26/20 A2980 RMK AO1 T02560202
KCGS 202017Z AUTO 00000KT 10SM CLR 27/20 A2980 RMK AO1 T02650196
KCGS 201957Z AUTO 00000KT 10SM SCT085 27/18 A2980 RMK AO1 T02660182
KCGS 201937Z AUTO 00000KT 10SM CLR 27/18 A2981 RMK AO1 T02660184
KCGS 201917Z AUTO 02003KT 10SM SCT050 26/19 A2982 RMK AO1 T02610191
KCGS 201857Z AUTO 05003KT 10SM SCT065 SCT080 SCT110 26/18 A2983 RMK AO1 T02630184
KCGS 201837Z AUTO 00000KT 10SM SCT028 BKN060 OVC080 26/18 A2984 RMK AO1 T02560179
KCGS 201817Z AUTO 00000KT 10SM SCT044 BKN060 BKN070 28/16 A2984 RMK AO1 T02810158
KCGS 201757Z AUTO 00000KT 10SM SCT070 BKN100 29/16 A2984 RMK AO1 T02910157
KCGS 201737Z AUTO 17004KT 10SM SCT070 SCT080 SCT110 29/16 A2984 RMK AO1 T02890159
KCGS 201717Z AUTO 00000KT 10SM SCT075 SCT110 28/16 A2984 RMK AO1 T02770162
KCGS 201657Z AUTO 00000KT 10SM SCT075 SCT090 BKN120 28/17 A2985 RMK AO1 T02800171
KCGS 201637Z AUTO 00000KT 10SM SCT044 SCT075 BKN090 27/17 A2986 RMK AO1 T02710171
KCGS 201617Z AUTO 00000KT 10SM SCT044 BKN090 27/17 A2987 RMK AO1 T02650169
KCGS 201557Z AUTO 00000KT 10SM SCT046 OVC080 26/18 A2988 RMK AO1 T02630176
KCGS 201537Z AUTO 00000KT 10SM SCT046 OVC080 26/18 A2988 RMK AO1 T02580176
KCGS 201517Z AUTO 00000KT 10SM OVC080 26/17 A2988 RMK AO1 T02590172
KCGS 201457Z AUTO 00000KT 10SM BKN080 26/17 A2987 RMK AO1 T02610168
KCGS 201437Z AUTO 00000KT 7SM SCT080 26/17 A2987 RMK AO1 T02590169
KCGS 201417Z AUTO 00000KT 10SM CLR 26/17 A2987 RMK AO1 T02570165
KCGS 201357Z AUTO 00000KT 10SM CLR 25/16 A2988 RMK AO1 T02520160
KCGS 201337Z AUTO 00000KT 10SM CLR 25/16 A2989 RMK AO1 T02450159
KCGS 201317Z AUTO 00000KT 10SM CLR 24/15 A2989 RMK AO1 T02380148
KCGS 201257Z AUTO 00000KT 10SM CLR 24/15 A2989 RMK AO1 T02360147
KCGS 201237Z AUTO 00000KT 10SM CLR 23/15 A2989 RMK AO1 T02310150
KCGS 201217Z AUTO 07003KT 10SM CLR 23/15 A2988 RMK AO1 T02260147
KCGS 201157Z AUTO 00000KT 10SM CLR 22/15 A2989 RMK AO1 T02220148
KCGS 201137Z AUTO 02003KT 10SM SCT065 22/15 A2989 RMK AO1 T02190148
KCGS 201117Z AUTO 00000KT 10SM CLR 21/17 A2988 RMK AO1 T02100165
KCGS 201057Z AUTO 00000KT 10SM CLR 20/17 A2989 RMK AO1 T01960173
KCGS 201037Z AUTO 00000KT 10SM SCT065 20/18 A2989 RMK AO1 T01950177
KCGS 201017Z AUTO 00000KT 10SM BKN065 20/17 A2988 RMK AO1 T01950169
KCGS 200957Z AUTO 00000KT 10SM BKN065 19/18 A2988 RMK AO1 T01880175
KCGS 200937Z AUTO 00000KT 10SM BKN065 19/18 A2988 RMK AO1 T01920178
KCGS 200917Z AUTO 00000KT 10SM OVC060 19/18 A2988 RMK AO1 T01930180
KCGS 200857Z AUTO 00000KT 10SM OVC060 19/18 A2987 RMK AO1 T01910177
KCGS 200837Z AUTO 00000KT 10SM SCT060 19/17 A2986 RMK AO1 T01920174
KCGS 200817Z AUTO 00000KT 10SM BKN060 20/18 A2987 RMK AO1 T01960180
KCGS 200757Z AUTO 00000KT 10SM OVC060 20/18 A2986 RMK AO1 T02030182
KCGS 200737Z AUTO 00000KT 10SM OVC060 20/18 A2987 RMK AO1 T01990182
KCGS 200717Z AUTO 00000KT 10SM OVC060 20/18 A2987 RMK AO1 T01980178
KCGS 200657Z AUTO 00000KT 10SM BKN060 19/18 A2987 RMK AO1 T01930181
KCGS 200637Z AUTO 00000KT 10SM SCT060 20/19 A2986 RMK AO1 T01960185
KCGS 200617Z AUTO 00000KT 10SM CLR 20/19 A2987 RMK AO1 T02000192
KCGS 200557Z AUTO 00000KT 10SM SCT060 20/19 A2986 RMK AO1 T02010193
KCGS 200537Z AUTO 00000KT 10SM BKN060 20/20 A2987 RMK AO1 T02030195
KCGS 200517Z AUTO 00000KT 10SM SCT060 20/20 A2988 RMK AO1 T02040195
KCGS 200417Z AUTO 00000KT 10SM CLR 21/20 A2987 RMK AO1 T02140203
KCGS 200357Z AUTO 00000KT 10SM CLR 22/21 A2987 RMK AO1 T02170210
KCGS 200337Z AUTO 00000KT 10SM CLR 22/21 A2987 RMK AO1 T02200211
KCGS 200257Z AUTO 00000KT 10SM CLR 23/21 A2987 RMK AO1 T02250212
KCGS 200217Z AUTO 00000KT 10SM CLR 23/21 A2988 RMK AO1 T02250213
KCGS 200157Z AUTO 00000KT 10SM CLR 23/22 A2988 RMK AO1 T02280216
KCGS 200137Z AUTO 00000KT 10SM CLR 23/21 A2988 RMK AO1 T02270214
KCGS 200117Z AUTO 00000KT 10SM CLR 23/22 A2987 RMK AO1 T02310215
KCGS 200057Z AUTO 00000KT 10SM CLR 24/22 A2986 RMK AO1 T02360219
KCGS 200037Z AUTO 00000KT 10SM SCT085 24/22 A2986 RMK AO1 T02400216
KCGS 200017Z AUTO 00000KT 10SM SCT085 26/21 A2986 RMK AO1 T02570212